Time;durP1;ratioP1;P1;durP2;ratioP2;P2;SDS_P1;SDS_P2;PMS_P1;PMS_P2;Temp;Humidity;BMP_temperature;BMP_pressure;BME280_temperature;BME280_humidity;BME280_pressure;Samples;Min_cycle;Max_cycle;Signal;HPM_P1;HPM_P2
2023/05/15 00:00:11;;;;;;;;;;;22.60;55.40;;;;;;1610019;72;755;-68
2023/05/15 00:02:13;;;;;;;;;;;22.50;55.50;;;;;;1605574;72;1235;-67
2023/05/15 00:04:15;;;;;;;;;;;22.50;55.50;;;;;;1609298;72;791;-68
2023/05/15 00:06:17;;;;;;;;;;;22.50;55.50;;;;;;1609979;72;761;-68
2023/05/15 00:08:19;;;;;;;;;;;22.50;55.40;;;;;;1609720;72;1421;-69
2023/05/15 00:10:21;;;;;;;;;;;22.60;55.20;;;;;;1605649;72;760;-67
2023/05/15 00:12:23;;;;;;;;;;;22.60;55.40;;;;;;1606899;72;1167;-67
2023/05/15 00:14:25;;;;;;;;;;;22.60;55.30;;;;;;1610217;72;1944;-69
2023/05/15 00:16:26;;;;;;;;;;;22.50;55.30;;;;;;1609407;72;748;-67
2023/05/15 00:18:28;;;;;;;;;;;22.50;55.50;;;;;;1609982;72;783;-67
2023/05/15 00:20:30;;;;;;;;;;;22.60;55.50;;;;;;1609477;72;752;-68
2023/05/15 00:22:32;;;;;;;;;;;22.50;55.40;;;;;;1610295;72;1474;-69
2023/05/15 00:24:34;;;;;;;;;;;22.50;55.40;;;;;;1612185;72;813;-67
2023/05/15 00:26:36;;;;;;;;;;;22.50;55.60;;;;;;1611028;72;760;-67
2023/05/15 00:28:38;;;;;;;;;;;22.50;55.70;;;;;;1609263;72;772;-67
2023/05/15 00:30:40;;;;;;;;;;;22.50;55.70;;;;;;1610754;72;1135;-67
2023/05/15 00:32:42;;;;;;;;;;;22.50;55.70;;;;;;1608096;72;799;-66
2023/05/15 00:34:43;;;;;;;;;;;22.50;55.70;;;;;;1610780;72;1942;-66
2023/05/15 00:36:45;;;;;;;;;;;22.50;55.80;;;;;;1609968;72;712;-66
2023/05/15 00:38:47;;;;;;;;;;;22.50;55.70;;;;;;1609957;72;756;-69
2023/05/15 00:40:49;;;;;;;;;;;22.40;55.60;;;;;;1609298;72;1170;-69
2023/05/15 00:42:51;;;;;;;;;;;22.50;56.10;;;;;;1609688;72;755;-66
2023/05/15 00:44:53;;;;;;;;;;;22.40;55.70;;;;;;1609407;72;806;-66
2023/05/15 00:46:55;;;;;;;;;;;22.40;55.90;;;;;;1609544;72;777;-67
2023/05/15 00:48:57;;;;;;;;;;;22.50;56.00;;;;;;1609613;72;1461;-67
2023/05/15 00:50:59;;;;;;;;;;;22.40;55.90;;;;;;1610214;72;1166;-67
2023/05/15 00:53:01;;;;;;;;;;;22.30;56.00;;;;;;1610194;72;776;-68
2023/05/15 00:55:03;;;;;;;;;;;22.40;56.00;;;;;;1610084;73;1928;-67
2023/05/15 00:57:05;;;;;;;;;;;22.40;56.00;;;;;;1570218;74;831;-67
2023/05/15 00:59:07;;;;;;;;;;;22.40;56.00;;;;;;1576332;74;742;-68
2023/05/15 01:01:09;;;;;;;;;;;22.40;56.00;;;;;;1579667;74;1224;-67
2023/05/15 01:03:11;;;;;;;;;;;22.30;55.90;;;;;;1576405;74;1368;-69
2023/05/15 01:05:13;;;;;;;;;;;22.40;56.00;;;;;;1606316;72;776;-66
2023/05/15 01:07:15;;;;;;;;;;;22.40;56.00;;;;;;1607662;72;774;-66
2023/05/15 01:09:17;;;;;;;;;;;22.40;55.90;;;;;;1610498;72;760;-67
2023/05/15 01:11:20;;;;;;;;;;;22.40;55.80;;;;;;1610739;72;1146;-64
2023/05/15 01:13:22;;;;;;;;;;;22.40;55.80;;;;;;1608201;72;761;-66
2023/05/15 01:15:23;;;;;;;;;;;22.40;55.80;;;;;;1609306;73;1922;-67
2023/05/15 01:17:25;;;;;;;;;;;22.40;55.70;;;;;;1610083;72;1409;-67
2023/05/15 01:19:27;;;;;;;;;;;22.40;55.70;;;;;;1605175;72;742;-67
2023/05/15 01:21:37;;;;;;;;;;;22.40;55.70;;;;;;1609786;72;1171;-67
2023/05/15 01:23:40;;;;;;;;;;;22.40;55.70;;;;;;1608475;72;755;-66
2023/05/15 01:25:59;;;;;;;;;;;22.40;55.70;;;;;;1610110;72;743;-67
2023/05/15 01:28:05;;;;;;;;;;;22.40;55.60;;;;;;1595195;72;1031;-66
2023/05/15 01:30:08;;;;;;;;;;;22.50;55.70;;;;;;1612087;72;771;-67
2023/05/15 01:32:12;;;;;;;;;;;22.50;55.60;;;;;;1603230;72;1448;-68
2023/05/15 01:34:14;;;;;;;;;;;22.50;55.60;;;;;;1603809;72;1935;-68
2023/05/15 01:36:20;;;;;;;;;;;22.50;55.70;;;;;;1609067;72;766;-72
2023/05/15 01:38:27;;;;;;;;;;;22.50;56.00;;;;;;1610337;72;747;-68
2023/05/15 01:40:29;;;;;;;;;;;22.50;55.80;;;;;;1617816;72;791;-67
2023/05/15 01:42:32;;;;;;;;;;;22.50;55.70;;;;;;1607724;72;1201;-67
2023/05/15 01:44:36;;;;;;;;;;;22.50;55.80;;;;;;1611478;72;752;-67
2023/05/15 01:46:38;;;;;;;;;;;22.50;55.70;;;;;;1608409;73;1365;-67
2023/05/15 01:48:41;;;;;;;;;;;22.50;55.70;;;;;;1605833;72;769;-67
2023/05/15 01:50:43;;;;;;;;;;;22.50;55.70;;;;;;1614640;72;1154;-67
2023/05/15 01:52:46;;;;;;;;;;;22.50;55.70;;;;;;1611225;72;750;-67
2023/05/15 01:54:48;;;;;;;;;;;22.50;55.60;;;;;;1610633;72;1920;-67
2023/05/15 01:56:50;;;;;;;;;;;22.50;55.50;;;;;;1609581;73;749;-67
2023/05/15 01:58:52;;;;;;;;;;;22.50;55.60;;;;;;1604552;72;791;-67
2023/05/15 02:00:54;;;;;;;;;;;22.50;55.40;;;;;;1615523;72;1481;-69
2023/05/15 02:02:56;;;;;;;;;;;22.50;55.40;;;;;;1609996;72;801;-70
2023/05/15 02:04:58;;;;;;;;;;;22.50;55.40;;;;;;1614522;73;775;-68
2023/05/15 02:07:02;;;;;;;;;;;22.60;55.30;;;;;;1609803;72;763;-67
2023/05/15 02:09:04;;;;;;;;;;;22.50;55.30;;;;;;1607312;72;833;-66
2023/05/15 02:11:05;;;;;;;;;;;22.50;55.30;;;;;;1610136;72;1230;-66
2023/05/15 02:13:08;;;;;;;;;;;22.50;55.20;;;;;;1610059;72;1440;-65
2023/05/15 02:15:10;;;;;;;;;;;22.60;55.50;;;;;;1601701;72;1930;-65
2023/05/15 02:17:12;;;;;;;;;;;22.60;55.70;;;;;;1603399;72;756;-66
2023/05/15 02:19:14;;;;;;;;;;;22.50;55.70;;;;;;1609870;72;849;-65
2023/05/15 02:21:16;;;;;;;;;;;22.50;56.00;;;;;;1608436;72;1179;-67
2023/05/15 02:23:19;;;;;;;;;;;22.50;56.10;;;;;;1611444;72;780;-66
2023/05/15 02:25:21;;;;;;;;;;;22.40;56.10;;;;;;1601369;73;751;-65
2023/05/15 02:27:30;;;;;;;;;;;22.30;56.30;;;;;;1595802;72;1456;-65
2023/05/15 02:29:46;;;;;;;;;;;22.40;56.50;;;;;;1608821;72;1058;-66
2023/05/15 02:31:52;;;;;;;;;;;22.40;56.70;;;;;;1607377;72;1154;-66
2023/05/15 02:33:59;;;;;;;;;;;22.30;56.80;;;;;;1609188;72;787;-66
2023/05/15 02:36:05;;;;;;;;;;;22.30;56.90;;;;;;1609779;72;1952;-68
2023/05/15 02:38:07;;;;;;;;;;;22.30;57.20;;;;;;1602530;72;761;-67
2023/05/15 02:40:10;;;;;;;;;;;22.20;57.10;;;;;;1608207;72;791;-67
2023/05/15 02:42:12;;;;;;;;;;;22.20;57.00;;;;;;1610253;72;1467;-66
2023/05/15 02:44:14;;;;;;;;;;;22.20;57.10;;;;;;1610104;73;833;-67
2023/05/15 02:46:16;;;;;;;;;;;22.30;57.10;;;;;;1605975;73;735;-67
2023/05/15 02:48:18;;;;;;;;;;;22.20;56.80;;;;;;1608971;72;792;-66
2023/05/15 02:50:20;;;;;;;;;;;22.30;56.90;;;;;;1609789;72;787;-67
2023/05/15 02:52:23;;;;;;;;;;;22.30;56.90;;;;;;1609360;72;1165;-66
2023/05/15 02:54:25;;;;;;;;;;;22.30;56.90;;;;;;1609353;72;1918;-67
2023/05/15 02:56:27;;;;;;;;;;;22.20;56.80;;;;;;1613797;72;1488;-67
2023/05/15 02:58:29;;;;;;;;;;;22.30;56.90;;;;;;1613138;72;741;-66
2023/05/15 03:00:31;;;;;;;;;;;22.30;56.90;;;;;;1604978;72;674;-66
2023/05/15 03:02:33;;;;;;;;;;;22.30;56.80;;;;;;1604534;72;1145;-67
2023/05/15 03:04:35;;;;;;;;;;;22.30;56.80;;;;;;1611818;72;842;-66
2023/05/15 03:06:36;;;;;;;;;;;22.30;56.70;;;;;;1609508;72;738;-67
2023/05/15 03:08:38;;;;;;;;;;;22.40;56.80;;;;;;1614065;72;847;-67
2023/05/15 03:10:40;;;;;;;;;;;22.30;56.60;;;;;;1609941;72;1504;-65
2023/05/15 03:12:42;;;;;;;;;;;22.40;56.60;;;;;;1610053;72;750;-67
2023/05/15 03:14:44;;;;;;;;;;;22.30;56.70;;;;;;1609846;72;1936;-67
2023/05/15 03:16:46;;;;;;;;;;;22.30;56.70;;;;;;1605934;72;795;-68
2023/05/15 03:18:48;;;;;;;;;;;22.40;56.60;;;;;;1610300;72;720;-67
2023/05/15 03:20:51;;;;;;;;;;;22.30;56.50;;;;;;1614668;72;1214;-66
2023/05/15 03:22:53;;;;;;;;;;;22.40;56.80;;;;;;1610126;72;743;-67
2023/05/15 03:24:55;;;;;;;;;;;22.40;56.50;;;;;;1611014;73;1466;-67
2023/05/15 03:26:57;;;;;;;;;;;22.30;56.40;;;;;;1608408;72;773;-68
2023/05/15 03:29:00;;;;;;;;;;;22.40;56.50;;;;;;1607717;72;768;-67
2023/05/15 03:31:03;;;;;;;;;;;22.40;56.50;;;;;;1612795;72;1155;-67
2023/05/15 03:33:05;;;;;;;;;;;22.40;56.50;;;;;;1608452;72;928;-67
2023/05/15 03:35:07;;;;;;;;;;;22.40;56.30;;;;;;1612696;72;1937;-66
2023/05/15 03:37:09;;;;;;;;;;;22.40;56.80;;;;;;1603621;72;775;-66
2023/05/15 03:39:11;;;;;;;;;;;22.30;57.00;;;;;;1614663;72;1424;-66
2023/05/15 03:41:13;;;;;;;;;;;22.20;56.90;;;;;;1616420;72;1155;-66
2023/05/15 03:43:15;;;;;;;;;;;22.20;57.10;;;;;;1613981;72;762;-67
2023/05/15 03:45:16;;;;;;;;;;;22.20;57.10;;;;;;1610259;72;805;-66
2023/05/15 03:47:18;;;;;;;;;;;22.30;57.30;;;;;;1609587;72;776;-67
2023/05/15 03:49:20;;;;;;;;;;;22.20;57.20;;;;;;1610025;72;791;-67
2023/05/15 03:51:23;;;;;;;;;;;22.20;57.10;;;;;;1607346;72;1148;-66
2023/05/15 03:53:24;;;;;;;;;;;22.20;57.30;;;;;;1609772;72;1570;-67
2023/05/15 03:55:26;;;;;;;;;;;22.20;57.10;;;;;;1609577;72;1914;-65
2023/05/15 03:57:28;;;;;;;;;;;22.20;57.10;;;;;;1609994;72;771;-67
2023/05/15 03:59:30;;;;;;;;;;;22.30;57.10;;;;;;1609216;73;763;-67
2023/05/15 04:01:32;;;;;;;;;;;22.40;56.90;;;;;;1609749;72;1175;-66
2023/05/15 04:03:34;;;;;;;;;;;22.30;56.80;;;;;;1607158;72;747;-66
2023/05/15 04:05:36;;;;;;;;;;;22.30;56.50;;;;;;1609156;73;1434;-68
2023/05/15 04:07:38;;;;;;;;;;;22.40;56.70;;;;;;1604932;72;760;-67
2023/05/15 04:09:39;;;;;;;;;;;22.40;56.80;;;;;;1606354;72;744;-67
2023/05/15 04:11:41;;;;;;;;;;;22.30;56.80;;;;;;1609444;72;1231;-64
2023/05/15 04:13:43;;;;;;;;;;;22.30;56.60;;;;;;1613867;72;791;-67
2023/05/15 04:15:45;;;;;;;;;;;22.40;56.50;;;;;;1613505;72;1980;-65
2023/05/15 04:17:47;;;;;;;;;;;22.50;56.60;;;;;;1611124;72;778;-68
2023/05/15 04:19:49;;;;;;;;;;;22.40;56.40;;;;;;1609746;72;1394;-67
2023/05/15 04:21:51;;;;;;;;;;;22.40;56.40;;;;;;1610031;73;1293;-67
2023/05/15 04:23:53;;;;;;;;;;;22.50;56.50;;;;;;1606282;73;791;-67
2023/05/15 04:25:55;;;;;;;;;;;22.50;56.40;;;;;;1609444;72;803;-67
2023/05/15 04:27:57;;;;;;;;;;;22.40;56.90;;;;;;1603292;72;779;-69
2023/05/15 04:30:00;;;;;;;;;;;22.30;57.10;;;;;;1605486;72;803;-69
2023/05/15 04:32:02;;;;;;;;;;;22.40;57.30;;;;;;1606834;72;1159;-71
2023/05/15 04:34:04;;;;;;;;;;;22.40;57.40;;;;;;1603560;72;1433;-69
2023/05/15 04:36:06;;;;;;;;;;;22.30;57.30;;;;;;1607429;72;1932;-70
2023/05/15 04:38:08;;;;;;;;;;;22.30;57.30;;;;;;1615155;72;706;-69
2023/05/15 04:40:13;;;;;;;;;;;22.20;57.10;;;;;;1609502;73;729;-67
2023/05/15 04:42:14;;;;;;;;;;;22.30;57.00;;;;;;1609029;72;1570;-69
2023/05/15 04:44:16;;;;;;;;;;;22.20;56.80;;;;;;1607841;72;627;-67
2023/05/15 04:46:17;;;;;;;;;;;22.20;56.80;;;;;;1606205;72;784;-68
2023/05/15 04:48:19;;;;;;;;;;;22.30;56.70;;;;;;1608466;72;1220;-68
2023/05/15 04:50:21;;;;;;;;;;;22.30;56.50;;;;;;1612658;72;664;-68
2023/05/15 04:52:23;;;;;;;;;;;22.30;56.50;;;;;;1606467;72;1112;-70
2023/05/15 04:54:25;;;;;;;;;;;22.30;56.30;;;;;;1607629;72;782;-66
2023/05/15 04:56:27;;;;;;;;;;;22.30;56.40;;;;;;1601714;73;1930;-69
2023/05/15 04:58:29;;;;;;;;;;;22.30;56.30;;;;;;1604164;72;761;-67
2023/05/15 05:00:31;;;;;;;;;;;22.20;56.40;;;;;;1609498;72;752;-67
2023/05/15 05:02:33;;;;;;;;;;;22.30;56.60;;;;;;1608747;72;1482;-69
2023/05/15 05:04:34;;;;;;;;;;;22.20;56.30;;;;;;1612295;72;780;-70
2023/05/15 05:06:36;;;;;;;;;;;22.20;56.20;;;;;;1608204;72;760;-70
2023/05/15 05:08:38;;;;;;;;;;;22.30;56.30;;;;;;1609045;72;779;-68
2023/05/15 05:10:40;;;;;;;;;;;22.30;56.20;;;;;;1608917;72;1230;-66
2023/05/15 05:12:42;;;;;;;;;;;22.30;56.00;;;;;;1612413;73;747;-65
2023/05/15 05:14:44;;;;;;;;;;;22.30;55.80;;;;;;1598887;73;796;-67
2023/05/15 05:16:46;;;;;;;;;;;22.50;55.60;;;;;;1609502;72;1925;-68
2023/05/15 05:18:48;;;;;;;;;;;22.60;54.60;;;;;;1613717;72;771;-67
2023/05/15 05:20:49;;;;;;;;;;;22.70;54.20;;;;;;1609251;72;1299;-69
2023/05/15 05:22:51;;;;;;;;;;;22.70;54.30;;;;;;1609540;73;830;-67
2023/05/15 05:24:53;;;;;;;;;;;22.80;53.40;;;;;;1607687;73;766;-67
2023/05/15 05:26:57;;;;;;;;;;;22.80;52.80;;;;;;1610533;72;813;-65
2023/05/15 05:28:58;;;;;;;;;;;22.90;52.30;;;;;;1608973;72;726;-67
2023/05/15 05:31:01;;;;;;;;;;;22.90;52.00;;;;;;1610432;72;1438;-68
2023/05/15 05:33:03;;;;;;;;;;;23.00;52.40;;;;;;1611578;72;734;-67
2023/05/15 05:35:05;;;;;;;;;;;23.10;51.90;;;;;;1612044;72;784;-69
2023/05/15 05:37:07;;;;;;;;;;;23.10;51.10;;;;;;1609226;72;1937;-68
2023/05/15 05:39:09;;;;;;;;;;;23.10;49.90;;;;;;1610020;73;797;-68
2023/05/15 05:41:11;;;;;;;;;;;23.00;49.70;;;;;;1608146;72;1183;-69
2023/05/15 05:43:13;;;;;;;;;;;23.00;49.40;;;;;;1608014;72;764;-65
2023/05/15 05:45:15;;;;;;;;;;;23.00;49.20;;;;;;1602140;72;1436;-65
2023/05/15 05:47:17;;;;;;;;;;;22.90;48.40;;;;;;1609212;72;799;-65
2023/05/15 05:49:18;;;;;;;;;;;22.90;47.90;;;;;;1609057;73;628;-65
2023/05/15 05:51:20;;;;;;;;;;;22.90;48.40;;;;;;1609345;72;1165;-66
2023/05/15 05:53:22;;;;;;;;;;;22.90;48.30;;;;;;1609552;72;766;-66
2023/05/15 05:55:24;;;;;;;;;;;22.90;47.80;;;;;;1609699;73;1920;-67
2023/05/15 05:57:26;;;;;;;;;;;22.80;46.90;;;;;;1604799;72;732;-67
2023/05/15 05:59:28;;;;;;;;;;;22.80;47.50;;;;;;1603836;72;1490;-67
2023/05/15 06:01:30;;;;;;;;;;;22.80;47.60;;;;;;1611818;72;1140;-67
2023/05/15 06:03:33;;;;;;;;;;;22.70;46.70;;;;;;1606846;72;702;-67
2023/05/15 06:05:34;;;;;;;;;;;22.70;46.70;;;;;;1608005;72;730;-67
2023/05/15 06:07:36;;;;;;;;;;;22.70;46.40;;;;;;1602772;72;771;-66
2023/05/15 06:09:38;;;;;;;;;;;22.70;46.60;;;;;;1610318;72;763;-67
2023/05/15 06:11:40;;;;;;;;;;;22.70;46.50;;;;;;1608174;72;1186;-66
2023/05/15 06:13:42;;;;;;;;;;;22.80;46.50;;;;;;1607920;72;1467;-70
2023/05/15 06:15:45;;;;;;;;;;;22.70;46.40;;;;;;1612092;72;1923;-67
2023/05/15 06:17:47;;;;;;;;;;;22.70;46.30;;;;;;1609931;72;761;-64
2023/05/15 06:19:48;;;;;;;;;;;22.70;46.20;;;;;;1605286;72;781;-66
2023/05/15 06:21:50;;;;;;;;;;;22.70;46.00;;;;;;1605601;72;1223;-66
2023/05/15 06:23:52;;;;;;;;;;;22.70;46.10;;;;;;1613422;72;776;-67
2023/05/15 06:25:54;;;;;;;;;;;22.80;46.20;;;;;;1609620;72;818;-66
2023/05/15 06:27:56;;;;;;;;;;;22.70;46.20;;;;;;1601814;72;1475;-69
2023/05/15 06:29:58;;;;;;;;;;;22.70;46.20;;;;;;1609781;72;793;-65
2023/05/15 06:32:00;;;;;;;;;;;22.70;46.10;;;;;;1609400;72;1185;-66
2023/05/15 06:34:01;;;;;;;;;;;22.70;46.40;;;;;;1610747;72;794;-65
2023/05/15 06:36:03;;;;;;;;;;;22.60;46.30;;;;;;1612395;72;1936;-66
2023/05/15 06:38:05;;;;;;;;;;;22.70;46.50;;;;;;1609063;72;781;-66
2023/05/15 06:40:08;;;;;;;;;;;22.70;46.60;;;;;;1604633;72;758;-66
2023/05/15 06:42:09;;;;;;;;;;;22.70;46.60;;;;;;1571962;74;1541;-65
2023/05/15 06:44:11;;;;;;;;;;;22.60;46.60;;;;;;1548714;75;742;-65
2023/05/15 06:46:15;;;;;;;;;;;22.60;46.70;;;;;;1547504;75;779;-67
2023/05/15 06:48:17;;;;;;;;;;;22.60;46.70;;;;;;1573713;74;1606;-65
2023/05/15 06:50:19;;;;;;;;;;;22.60;46.70;;;;;;1576020;74;772;-66
2023/05/15 06:52:21;;;;;;;;;;;22.60;46.80;;;;;;1578670;74;1179;-67
2023/05/15 06:54:22;;;;;;;;;;;22.60;46.90;;;;;;1557004;75;1424;-68
2023/05/15 06:56:24;;;;;;;;;;;22.60;46.90;;;;;;1547530;75;1928;-66
2023/05/15 06:58:26;;;;;;;;;;;22.60;47.10;;;;;;1607269;72;772;-65
2023/05/15 07:00:28;;;;;;;;;;;22.60;47.10;;;;;;1609410;72;790;-65
2023/05/15 07:02:30;;;;;;;;;;;22.60;47.10;;;;;;1612234;72;1144;-68
2023/05/15 07:04:32;;;;;;;;;;;22.60;47.20;;;;;;1609375;72;672;-66
2023/05/15 07:06:35;;;;;;;;;;;22.60;47.30;;;;;;1607349;74;675;-66
2023/05/15 07:08:37;;;;;;;;;;;22.60;47.30;;;;;;1610060;72;1304;-65
2023/05/15 07:10:38;;;;;;;;;;;22.50;47.30;;;;;;1615756;72;1154;-65
2023/05/15 07:12:40;;;;;;;;;;;22.50;47.30;;;;;;1609755;72;744;-66
2023/05/15 07:14:42;;;;;;;;;;;22.50;47.50;;;;;;1597207;72;758;-66
2023/05/15 07:16:46;;;;;;;;;;;22.50;47.60;;;;;;1606577;72;1938;-65
2023/05/15 07:18:47;;;;;;;;;;;22.50;47.50;;;;;;1606988;72;748;-66
2023/05/15 07:20:49;;;;;;;;;;;22.50;47.60;;;;;;1616763;72;1244;-66
2023/05/15 07:22:51;;;;;;;;;;;22.50;47.60;;;;;;1608268;72;1444;-66
2023/05/15 07:24:53;;;;;;;;;;;22.50;47.60;;;;;;1607888;72;788;-66
2023/05/15 07:26:55;;;;;;;;;;;22.50;47.60;;;;;;1602878;73;814;-68
2023/05/15 07:28:57;;;;;;;;;;;22.40;47.60;;;;;;1607908;73;768;-67
2023/05/15 07:30:59;;;;;;;;;;;22.40;47.80;;;;;;1606447;72;1186;-71
2023/05/15 07:33:02;;;;;;;;;;;22.30;48.20;;;;;;1609662;72;914;-69
2023/05/15 07:35:04;;;;;;;;;;;22.40;48.10;;;;;;1609334;72;948;-73
2023/05/15 07:37:06;;;;;;;;;;;22.40;48.30;;;;;;1609179;72;1922;-71
2023/05/15 07:39:08;;;;;;;;;;;22.30;48.50;;;;;;1610972;72;782;-71
2023/05/15 07:41:10;;;;;;;;;;;22.40;48.90;;;;;;1608197;72;1163;-73
2023/05/15 07:43:12;;;;;;;;;;;22.30;49.30;;;;;;1610720;73;758;-69
2023/05/15 07:45:13;;;;;;;;;;;22.20;49.40;;;;;;1606655;73;700;-69
2023/05/15 07:47:16;;;;;;;;;;;22.30;49.40;;;;;;1597732;72;795;-70
2023/05/15 07:49:18;;;;;;;;;;;22.40;49.40;;;;;;1604070;72;776;-70
2023/05/15 07:51:20;;;;;;;;;;;22.40;49.40;;;;;;1610180;72;1366;-70
2023/05/15 07:53:21;;;;;;;;;;;22.40;49.40;;;;;;1611384;72;765;-71
2023/05/15 07:55:23;;;;;;;;;;;22.30;49.40;;;;;;1605147;72;771;-70
2023/05/15 07:57:25;;;;;;;;;;;22.30;49.40;;;;;;1606138;72;1944;-73
2023/05/15 07:59:27;;;;;;;;;;;22.30;49.50;;;;;;1609156;72;749;-72
2023/05/15 08:01:29;;;;;;;;;;;22.40;49.40;;;;;;1609396;72;1175;-72
2023/05/15 08:03:31;;;;;;;;;;;22.40;49.50;;;;;;1609508;72;735;-71
2023/05/15 08:05:33;;;;;;;;;;;22.30;49.60;;;;;;1612410;72;1450;-71
2023/05/15 08:07:35;;;;;;;;;;;22.30;49.70;;;;;;1607792;72;638;-70
2023/05/15 08:09:37;;;;;;;;;;;22.40;49.60;;;;;;1607984;73;760;-69
2023/05/15 08:11:39;;;;;;;;;;;22.40;49.70;;;;;;1616032;72;1174;-70
2023/05/15 08:13:41;;;;;;;;;;;22.40;49.60;;;;;;1604749;72;659;-71
2023/05/15 08:15:43;;;;;;;;;;;22.40;49.60;;;;;;1608973;72;782;-70
2023/05/15 08:17:45;;;;;;;;;;;22.50;49.80;;;;;;1608144;72;1918;-69
2023/05/15 08:19:47;;;;;;;;;;;22.50;49.80;;;;;;1611068;72;1414;-69
2023/05/15 08:21:50;;;;;;;;;;;22.60;49.90;;;;;;1618501;72;1225;-68
2023/05/15 08:23:51;;;;;;;;;;;22.60;50.00;;;;;;1607729;72;760;-70
2023/05/15 08:25:53;;;;;;;;;;;22.60;49.90;;;;;;1611366;72;789;-75
2023/05/15 08:27:55;;;;;;;;;;;22.70;49.90;;;;;;1616921;72;798;-70
2023/05/15 08:29:57;;;;;;;;;;;22.80;49.70;;;;;;1609236;73;810;-69
2023/05/15 08:32:00;;;;;;;;;;;22.90;49.80;;;;;;1606728;72;1163;-71
2023/05/15 08:34:01;;;;;;;;;;;22.90;49.80;;;;;;1601192;72;1526;-69
2023/05/15 08:36:03;;;;;;;;;;;22.90;49.40;;;;;;1611438;72;788;-69
2023/05/15 08:38:05;;;;;;;;;;;22.90;49.40;;;;;;1597137;73;1941;-70
2023/05/15 08:40:08;;;;;;;;;;;22.80;49.40;;;;;;1611272;72;743;-69
2023/05/15 08:42:23;;;;;;;;;;;22.90;49.40;;;;;;1610289;73;1131;-69
2023/05/15 08:44:25;;;;;;;;;;;22.80;49.30;;;;;;1602490;73;765;-73
2023/05/15 08:46:27;;;;;;;;;;;22.70;49.40;;;;;;1608371;72;724;-70
2023/05/15 08:48:29;;;;;;;;;;;22.70;49.40;;;;;;1608677;72;1434;-68
2023/05/15 08:50:30;;;;;;;;;;;22.70;49.50;;;;;;1603763;72;751;-71
2023/05/15 08:52:32;;;;;;;;;;;22.60;49.40;;;;;;1608519;72;1126;-71
2023/05/15 08:54:34;;;;;;;;;;;22.60;49.50;;;;;;1609389;73;742;-70
2023/05/15 08:56:36;;;;;;;;;;;22.60;49.60;;;;;;1607411;74;1935;-71
2023/05/15 08:58:38;;;;;;;;;;;22.60;49.60;;;;;;1607058;72;741;-69
2023/05/15 09:00:40;;;;;;;;;;;22.60;49.50;;;;;;1575618;74;1188;-71
2023/05/15 09:02:42;;;;;;;;;;;22.60;49.50;;;;;;1609485;72;1572;-71
2023/05/15 09:04:44;;;;;;;;;;;22.70;49.60;;;;;;1613007;72;695;-70
2023/05/15 09:06:46;;;;;;;;;;;22.70;49.70;;;;;;1609709;72;697;-70
2023/05/15 09:08:48;;;;;;;;;;;22.70;49.50;;;;;;1616265;72;751;-69
2023/05/15 09:10:50;;;;;;;;;;;22.70;49.60;;;;;;1608688;72;1174;-69
2023/05/15 09:12:52;;;;;;;;;;;22.70;49.50;;;;;;1602399;72;713;-71
2023/05/15 09:15:10;;;;;;;;;;;22.80;49.40;;;;;;1566240;74;784;-72
2023/05/15 09:17:11;;;;;;;;;;;22.70;49.30;;;;;;1599269;72;1944;-71
2023/05/15 09:19:13;;;;;;;;;;;22.70;49.40;;;;;;1608938;72;669;-72
2023/05/15 09:21:22;;;;;;;;;;;22.60;49.40;;;;;;1605274;72;1246;-69
2023/05/15 09:23:25;;;;;;;;;;;22.60;49.40;;;;;;1609242;74;752;-72
2023/05/15 09:25:37;;;;;;;;;;;22.60;49.30;;;;;;1606319;72;685;-70
2023/05/15 09:27:42;;;;;;;;;;;22.60;49.30;;;;;;1609432;72;802;-70
2023/05/15 09:29:44;;;;;;;;;;;22.60;49.40;;;;;;1609522;72;1461;-73
2023/05/15 09:31:46;;;;;;;;;;;22.60;49.40;;;;;;1610650;72;1175;-68
2023/05/15 09:33:48;;;;;;;;;;;22.60;49.40;;;;;;1607035;72;760;-72
2023/05/15 09:35:51;;;;;;;;;;;22.50;49.40;;;;;;1575598;74;676;-69
2023/05/15 09:37:55;;;;;;;;;;;22.60;49.40;;;;;;1612921;73;2093;-69
2023/05/15 09:39:58;;;;;;;;;;;22.60;49.40;;;;;;1610833;72;1557;-74
2023/05/15 09:42:07;;;;;;;;;;;22.60;49.40;;;;;;1611340;72;1150;-70
2023/05/15 09:44:10;;;;;;;;;;;22.60;49.30;;;;;;1598575;72;1429;-69
2023/05/15 09:46:14;;;;;;;;;;;22.50;49.30;;;;;;1608413;72;1031;-70
2023/05/15 09:48:16;;;;;;;;;;;22.50;49.30;;;;;;1605056;72;1638;-69
2023/05/15 09:50:22;;;;;;;;;;;22.60;49.30;;;;;;1606058;73;839;-70
2023/05/15 09:52:23;;;;;;;;;;;22.60;49.20;;;;;;1609014;73;1170;-69
2023/05/15 09:54:26;;;;;;;;;;;22.60;49.20;;;;;;1609069;73;763;-71
2023/05/15 09:56:28;;;;;;;;;;;22.60;49.20;;;;;;1610084;73;733;-71
2023/05/15 09:58:30;;;;;;;;;;;22.60;49.20;;;;;;1608814;73;1926;-71
2023/05/15 10:00:32;;;;;;;;;;;22.60;49.20;;;;;;1609157;72;763;-69
2023/05/15 10:02:35;;;;;;;;;;;22.50;49.20;;;;;;1600844;72;1206;-71
2023/05/15 10:04:37;;;;;;;;;;;22.60;49.20;;;;;;1605958;72;690;-73
2023/05/15 10:06:39;;;;;;;;;;;22.60;49.20;;;;;;1575112;74;754;-71
2023/05/15 10:08:41;;;;;;;;;;;22.50;49.40;;;;;;1605045;72;740;-73
2023/05/15 10:10:43;;;;;;;;;;;22.50;49.40;;;;;;1609476;72;1154;-73
2023/05/15 10:12:45;;;;;;;;;;;22.50;49.40;;;;;;1610031;72;1547;-70
2023/05/15 10:14:46;;;;;;;;;;;22.50;49.30;;;;;;1597628;72;789;-70
2023/05/15 10:16:48;;;;;;;;;;;22.50;49.20;;;;;;1607339;72;795;-71
2023/05/15 10:18:51;;;;;;;;;;;22.60;49.20;;;;;;1609610;72;1926;-70
2023/05/15 10:20:53;;;;;;;;;;;22.60;49.20;;;;;;1604864;72;1246;-69
2023/05/15 10:22:55;;;;;;;;;;;22.50;49.30;;;;;;1609231;72;803;-69
2023/05/15 10:25:00;;;;;;;;;;;22.50;49.20;;;;;;1608603;73;1025;-70
2023/05/15 10:27:02;;;;;;;;;;;22.50;49.30;;;;;;1598566;72;2113;-68
2023/05/15 10:29:06;;;;;;;;;;;22.50;49.20;;;;;;1611500;72;715;-71
2023/05/15 10:31:07;;;;;;;;;;;22.50;49.10;;;;;;1606082;72;1204;-73
2023/05/15 10:33:09;;;;;;;;;;;22.50;48.80;;;;;;1577521;75;805;-72
2023/05/15 10:35:11;;;;;;;;;;;22.50;48.90;;;;;;1609847;72;748;-72
2023/05/15 10:37:13;;;;;;;;;;;22.50;48.90;;;;;;1610754;72;1928;-72
2023/05/15 10:39:15;;;;;;;;;;;22.50;48.90;;;;;;1609623;72;758;-73
2023/05/15 10:41:17;;;;;;;;;;;22.50;49.10;;;;;;1606932;72;1627;-67
2023/05/15 10:43:19;;;;;;;;;;;22.50;49.10;;;;;;1608967;72;861;-68
2023/05/15 10:45:21;;;;;;;;;;;22.50;49.00;;;;;;1607328;72;814;-70
2023/05/15 10:47:23;;;;;;;;;;;22.50;48.90;;;;;;1608190;72;743;-73
2023/05/15 10:49:25;;;;;;;;;;;22.50;49.00;;;;;;1609084;72;758;-69
2023/05/15 10:51:28;;;;;;;;;;;22.50;49.10;;;;;;1609749;72;1166;-66
2023/05/15 10:53:29;;;;;;;;;;;22.50;49.20;;;;;;1611340;72;1425;-68
2023/05/15 10:55:31;;;;;;;;;;;22.50;49.30;;;;;;1575768;74;1178;-68
2023/05/15 10:57:33;;;;;;;;;;;22.50;49.10;;;;;;1610750;73;1944;-68
2023/05/15 10:59:35;;;;;;;;;;;22.60;49.00;;;;;;1609639;72;772;-69
2023/05/15 11:01:38;;;;;;;;;;;22.60;48.90;;;;;;1610965;73;1183;-69
2023/05/15 11:03:41;;;;;;;;;;;22.60;49.00;;;;;;1610784;72;755;-69
2023/05/15 11:06:01;;;;;;;;;;;22.60;48.90;;;;;;1611668;72;1642;-67
2023/05/15 11:08:20;;;;;;;;;;;22.60;48.90;;;;;;1607741;72;1439;-68
2023/05/15 11:10:30;;;;;;;;;;;22.70;48.90;;;;;;1601971;72;1265;-69
2023/05/15 11:12:50;;;;;;;;;;;22.60;48.60;;;;;;1614813;72;1137;-68
2023/05/15 11:14:53;;;;;;;;;;;22.60;48.60;;;;;;1610368;72;674;-67
2023/05/15 11:16:57;;;;;;;;;;;22.60;48.60;;;;;;1609934;73;806;-67
2023/05/15 11:18:58;;;;;;;;;;;22.60;48.60;;;;;;1600551;72;1923;-66
2023/05/15 11:21:03;;;;;;;;;;;22.50;48.50;;;;;;1608445;72;1247;-68
2023/05/15 11:23:04;;;;;;;;;;;22.60;48.40;;;;;;1604087;72;1489;-68
2023/05/15 11:25:11;;;;;;;;;;;22.60;48.40;;;;;;1608154;72;803;-66
2023/05/15 11:27:13;;;;;;;;;;;22.50;48.40;;;;;;1610113;72;664;-69
2023/05/15 11:29:18;;;;;;;;;;;22.50;48.40;;;;;;1610336;72;770;-63
2023/05/15 11:31:20;;;;;;;;;;;22.50;48.00;;;;;;1611517;72;1166;-65
2023/05/15 11:33:22;;;;;;;;;;;22.40;48.60;;;;;;1576375;74;1150;-69
2023/05/15 11:35:28;;;;;;;;;;;22.40;48.80;;;;;;1609765;72;777;-67
2023/05/15 11:37:30;;;;;;;;;;;22.40;49.00;;;;;;1611888;73;1947;-67
2023/05/15 11:39:32;;;;;;;;;;;22.40;49.10;;;;;;1612231;73;773;-66
2023/05/15 11:41:33;;;;;;;;;;;22.30;49.20;;;;;;1565344;74;1159;-66
2023/05/15 11:43:35;;;;;;;;;;;22.40;49.30;;;;;;1608399;72;759;-64
2023/05/15 11:45:37;;;;;;;;;;;22.40;49.40;;;;;;1602362;72;760;-67
2023/05/15 11:47:39;;;;;;;;;;;22.40;49.40;;;;;;1604360;73;750;-66
2023/05/15 11:49:41;;;;;;;;;;;22.30;49.50;;;;;;1609483;72;1355;-68
2023/05/15 11:51:43;;;;;;;;;;;22.30;49.70;;;;;;1607463;72;1140;-71
2023/05/15 11:53:45;;;;;;;;;;;22.20;49.70;;;;;;1605739;72;767;-71
2023/05/15 11:55:47;;;;;;;;;;;22.30;49.90;;;;;;1575163;75;775;-69
2023/05/15 11:57:49;;;;;;;;;;;22.30;49.90;;;;;;1549088;75;1958;-65
2023/05/15 11:59:53;;;;;;;;;;;22.30;50.00;;;;;;1550111;75;779;-66
2023/05/15 12:01:54;;;;;;;;;;;22.30;50.10;;;;;;1559148;76;1164;-68
2023/05/15 12:03:56;;;;;;;;;;;22.30;50.20;;;;;;1576140;74;750;-64
2023/05/15 12:05:58;;;;;;;;;;;22.30;50.20;;;;;;1576129;75;809;-65
2023/05/15 12:08:01;;;;;;;;;;;22.40;50.10;;;;;;1576216;75;726;-64
2023/05/15 12:10:02;;;;;;;;;;;22.40;50.00;;;;;;1576212;74;765;-65